createdAt,value
2023-02-23T00:00:53.272Z,96
2023-02-23T00:05:53.308Z,96
2023-02-23T00:10:53.367Z,96
2023-02-23T00:15:53.341Z,96
2023-02-23T00:20:53.389Z,97
2023-02-23T00:25:52.452Z,97
2023-02-23T00:30:52.653Z,97
2023-02-23T00:35:52.955Z,97
2023-02-23T00:40:53.215Z,97
2023-02-23T00:45:53.336Z,97
2023-02-23T00:50:52.424Z,97
2023-02-23T00:55:52.496Z,97
2023-02-23T01:00:52.673Z,96
2023-02-23T01:05:52.762Z,96
2023-02-23T01:10:52.901Z,97
2023-02-23T01:15:53.031Z,97
2023-02-23T01:20:53.361Z,97
2023-02-23T01:25:52.717Z,97
2023-02-23T01:30:53.009Z,97
2023-02-23T01:35:53.024Z,97
2023-02-23T01:40:53.247Z,97
2023-02-23T01:45:53.359Z,97
2023-02-23T01:50:52.507Z,97
2023-02-23T01:55:52.796Z,97
2023-02-23T02:00:52.942Z,97
2023-02-23T02:05:53.072Z,97
2023-02-23T02:10:53.383Z,97
2023-02-23T02:15:52.619Z,97
2023-02-23T02:20:52.945Z,97
2023-02-23T02:25:53.191Z,97
2023-02-23T02:30:53.301Z,97
2023-02-23T02:35:53.314Z,97
2023-02-23T02:40:53.641Z,97
2023-02-23T02:45:52.856Z,97
2023-02-23T02:50:54.311Z,97
2023-02-23T02:55:52.862Z,97
2023-02-23T03:00:53.435Z,97
2023-02-23T03:05:52.700Z,97
2023-02-23T03:10:53.033Z,97
2023-02-23T03:15:53.146Z,97
2023-02-23T03:20:52.994Z,97
2023-02-23T03:25:53.213Z,97
2023-02-23T03:30:52.994Z,97
2023-02-23T03:35:53.424Z,97
2023-02-23T03:40:52.917Z,97
2023-02-23T03:45:52.912Z,97
2023-02-23T03:50:53.357Z,97
2023-02-23T03:55:52.994Z,97
2023-02-23T04:00:53.431Z,97
2023-02-23T04:05:53.474Z,97
2023-02-23T04:10:53.228Z,97
2023-02-23T04:15:52.799Z,97
2023-02-23T04:20:53.097Z,97
2023-02-23T04:25:53.490Z,97
2023-02-23T04:30:52.696Z,97
2023-02-23T04:35:53.521Z,97
2023-02-23T04:40:52.859Z,97
2023-02-23T04:45:52.896Z,97
2023-02-23T04:50:53.018Z,97
2023-02-23T04:55:53.147Z,97
2023-02-23T05:00:53.391Z,97
2023-02-23T05:05:53.420Z,97
2023-02-23T05:10:52.911Z,97
2023-02-23T05:15:53.150Z,97
2023-02-23T05:20:53.394Z,97
2023-02-23T05:25:52.725Z,97
2023-02-23T05:30:53.049Z,97
2023-02-23T05:35:53.437Z,97
2023-02-23T05:40:53.435Z,97
2023-02-23T05:45:52.645Z,97
2023-02-23T05:50:52.791Z,97
2023-02-23T05:55:52.941Z,97
2023-02-23T06:00:52.998Z,97
2023-02-23T06:05:53.112Z,97
2023-02-23T06:10:53.131Z,97
2023-02-23T06:15:53.171Z,97
2023-02-23T06:20:53.374Z,97
2023-02-23T06:25:53.386Z,97
2023-02-23T06:30:52.798Z,97
2023-02-23T06:35:52.915Z,97
2023-02-23T06:40:53.063Z,97
2023-02-23T06:45:53.256Z,97
2023-02-23T06:50:53.311Z,97
2023-02-23T06:55:53.485Z,97
2023-02-23T07:00:53.515Z,98
2023-02-23T07:05:53.578Z,98
2023-02-23T07:10:52.711Z,97
2023-02-23T07:15:52.866Z,97
2023-02-23T07:20:52.790Z,98
2023-02-23T07:25:53.064Z,98
2023-02-23T07:30:53.129Z,98
2023-02-23T07:35:52.808Z,98
2023-02-23T07:40:52.916Z,98
2023-02-23T07:45:53.055Z,98
2023-02-23T07:50:53.303Z,98
2023-02-23T07:55:53.337Z,98
2023-02-23T08:00:53.403Z,98
2023-02-23T08:05:53.547Z,98
2023-02-23T08:10:52.900Z,98
2023-02-23T08:15:53.579Z,98
2023-02-23T08:20:53.489Z,98
2023-02-23T08:25:53.614Z,98
2023-02-23T08:30:53.745Z,98
2023-02-23T08:35:52.943Z,98
2023-02-23T08:40:52.994Z,98
2023-02-23T08:45:53.224Z,98
2023-02-23T08:50:53.401Z,98
2023-02-23T08:55:53.670Z,98
2023-02-23T09:00:52.777Z,98
2023-02-23T09:05:53.045Z,98
2023-02-23T09:10:53.879Z,98
2023-02-23T09:15:52.950Z,98
2023-02-23T09:20:52.970Z,98
2023-02-23T09:25:53.083Z,98
2023-02-23T09:30:53.313Z,98
2023-02-23T09:35:53.404Z,98
2023-02-23T09:40:53.137Z,98
2023-02-23T09:45:53.465Z,98
2023-02-23T09:50:53.826Z,98
2023-02-23T09:55:52.904Z,98
2023-02-23T10:00:53.411Z,98
2023-02-23T10:05:53.578Z,98
2023-02-23T10:10:53.183Z,98
2023-02-23T10:15:53.299Z,98
2023-02-23T10:20:53.479Z,98
2023-02-23T10:25:53.680Z,98
2023-02-23T10:30:53.837Z,98
2023-02-23T10:36:03.781Z,98
2023-02-23T10:40:53.374Z,98
2023-02-23T10:45:53.618Z,98
2023-02-23T10:50:53.486Z,98
2023-02-23T10:55:53.668Z,98
2023-02-23T11:00:52.789Z,98
2023-02-23T11:05:53.349Z,98
2023-02-23T11:10:53.580Z,98
2023-02-23T11:15:53.638Z,98
2023-02-23T11:20:52.829Z,98
2023-02-23T11:25:53.032Z,98
2023-02-23T11:30:53.258Z,98
2023-02-23T11:35:53.565Z,98
2023-02-23T11:40:52.890Z,98
2023-02-23T11:45:53.065Z,98
2023-02-23T11:50:53.503Z,98
2023-02-23T11:55:52.844Z,98
2023-02-23T12:00:53.098Z,98
2023-02-23T12:05:53.532Z,98
2023-02-23T12:10:52.916Z,98
2023-02-23T12:15:53.385Z,98
2023-02-23T12:20:53.657Z,98
2023-02-23T12:25:52.974Z,98
2023-02-23T12:30:53.330Z,97
2023-02-23T12:35:53.753Z,97
2023-02-23T12:40:53.017Z,98
2023-02-23T12:45:53.238Z,98
2023-02-23T12:50:53.532Z,97
2023-02-23T12:55:53.064Z,97
2023-02-23T13:00:53.408Z,97
2023-02-23T13:05:52.814Z,97
2023-02-23T13:10:53.068Z,97
2023-02-23T13:15:53.213Z,97
2023-02-23T13:20:53.362Z,97
2023-02-23T13:25:53.563Z,97
2023-02-23T13:30:53.893Z,96
2023-02-23T13:35:53.538Z,96
2023-02-23T13:40:53.829Z,96
2023-02-23T13:45:53.765Z,96
2023-02-23T13:50:53.298Z,95
2023-02-23T13:55:53.703Z,95
2023-02-23T14:00:52.930Z,95
2023-02-23T14:05:53.451Z,95
2023-02-23T14:10:53.185Z,94
2023-02-23T14:15:53.415Z,94
2023-02-23T14:20:53.261Z,94
2023-02-23T14:25:54.669Z,94
2023-02-23T14:30:53.564Z,94
2023-02-23T14:35:53.869Z,94
2023-02-23T14:40:53.225Z,93
2023-02-23T14:45:53.505Z,93
2023-02-23T14:50:53.878Z,93
2023-02-23T14:55:53.000Z,93
2023-02-23T15:00:53.535Z,93
2023-02-23T15:05:53.954Z,93
2023-02-23T15:10:53.443Z,93
2023-02-23T15:15:53.843Z,93
2023-02-23T15:20:53.633Z,93
2023-02-23T15:25:53.186Z,93
2023-02-23T15:30:53.591Z,93
2023-02-23T15:35:53.318Z,93
2023-02-23T15:40:53.785Z,93
2023-02-23T15:45:53.432Z,93
2023-02-23T15:50:53.607Z,93
2023-02-23T15:55:53.067Z,93
2023-02-23T16:00:53.696Z,93
2023-02-23T16:05:53.817Z,93
2023-02-23T16:10:54.037Z,93
2023-02-23T16:15:53.585Z,93
2023-02-23T16:20:53.620Z,93
2023-02-23T16:25:53.902Z,93
2023-02-23T16:30:53.704Z,93
2023-02-23T16:35:53.586Z,93
2023-02-23T16:40:53.028Z,93
2023-02-23T16:45:53.817Z,93
2023-02-23T16:50:53.173Z,93
2023-02-23T16:55:53.401Z,93
2023-02-23T17:00:53.740Z,93
2023-02-23T17:05:53.030Z,93
2023-02-23T17:10:53.265Z,93
2023-02-23T17:15:53.399Z,93
2023-02-23T17:20:53.822Z,93
2023-02-23T17:25:53.196Z,93
2023-02-23T17:30:53.455Z,93
2023-02-23T17:35:53.672Z,93
2023-02-23T17:40:53.895Z,93
2023-02-23T17:45:53.168Z,93
2023-02-23T17:50:53.632Z,92
2023-02-23T17:55:53.852Z,92
2023-02-23T18:00:53.269Z,91
2023-02-23T18:05:53.634Z,91
2023-02-23T18:10:53.897Z,90
2023-02-23T18:15:53.228Z,90
2023-02-23T18:20:53.705Z,89
2023-02-23T18:25:53.902Z,89
2023-02-23T18:30:53.215Z,88
2023-02-23T18:35:53.430Z,88
2023-02-23T18:40:53.604Z,88
2023-02-23T18:45:53.812Z,88
2023-02-23T18:50:53.177Z,87
2023-02-23T18:55:53.613Z,87
2023-02-23T19:00:53.993Z,86
2023-02-23T19:05:54.104Z,86
2023-02-23T19:10:53.376Z,86
2023-02-23T19:15:53.716Z,86
2023-02-23T19:20:53.055Z,86
2023-02-23T19:25:53.337Z,86
2023-02-23T19:30:53.862Z,86
2023-02-23T19:35:53.952Z,86
2023-02-23T19:40:53.094Z,86
2023-02-23T19:45:53.870Z,86
2023-02-23T19:50:53.384Z,86
2023-02-23T19:55:53.585Z,86
2023-02-23T20:00:53.872Z,85
2023-02-23T20:05:54.157Z,85
2023-02-23T20:10:53.477Z,85
2023-02-23T20:15:53.812Z,85
2023-02-23T20:20:54.094Z,86
2023-02-23T20:25:53.442Z,86
2023-02-23T20:30:53.863Z,86
2023-02-23T20:35:54.067Z,86
2023-02-23T20:40:53.389Z,86
2023-02-23T20:45:53.728Z,86
2023-02-23T20:50:54.096Z,86
2023-02-23T20:55:53.869Z,86
2023-02-23T21:00:54.144Z,85
2023-02-23T21:05:53.782Z,85
2023-02-23T21:10:54.235Z,85
2023-02-23T21:15:53.437Z,85
2023-02-23T21:20:54.046Z,86
2023-02-23T21:25:53.171Z,86
2023-02-23T21:30:53.612Z,85
2023-02-23T21:35:55.704Z,85
2023-02-23T21:40:53.283Z,85
2023-02-23T21:45:53.559Z,85
2023-02-23T21:50:54.140Z,85
2023-02-23T21:55:54.132Z,85
2023-02-23T22:00:53.531Z,85
2023-02-23T22:05:54.203Z,85
2023-02-23T22:10:53.458Z,85
2023-02-23T22:15:53.872Z,85
2023-02-23T22:20:54.195Z,84
2023-02-23T22:25:53.526Z,84
2023-02-23T22:30:53.858Z,84
2023-02-23T22:35:54.161Z,84
2023-02-23T22:40:53.452Z,84
2023-02-23T22:45:53.896Z,84
2023-02-23T22:50:54.038Z,83
2023-02-23T22:55:53.337Z,83
2023-02-23T23:00:53.705Z,82
2023-02-23T23:05:54.029Z,82
2023-02-23T23:10:54.331Z,82
2023-02-23T23:15:57.752Z,82
2023-02-23T23:20:54.198Z,82
2023-02-23T23:25:54.131Z,82
2023-02-23T23:30:54.002Z,81
2023-02-23T23:35:53.288Z,81
2023-02-23T23:40:53.706Z,81
2023-02-23T23:45:53.925Z,81
2023-02-23T23:55:53.335Z,82
